Maimiti — PBIJ — position and weather

sailwx.info

Track history (hours):
 
Tides and Currents Weather Stations Pressure Air Temp Water Temp Dewpoint Dewpoint Depression Visibility Wind Speed Wind Dir Waves Ship Positions

Maimiti

Last reported at 2016-May-30 07:32 UTC. Time now 2016-May-31 04:03 UTC.
Position N 54°31' E 013°42'.

Length 35 m; draft 6.6 m.

Type: Tug. MMSI: 244850959.

Date/timePositionNaut miles runAvg speedWind from/ knotsBaromVisibWave heightAir tempDewpointWater temp
2016-May-30 07:32N 54°31' E 013°42'7 6.7
2016-May-30 06:31N 54°37' E 013°39'30 7.6
2016-May-30 02:33N 54°41' E 012°47'9 8.2
2016-May-30 01:31N 54°39' E 012°33'23 7.7
2016-May-29 22:33N 54°24' E 012°03'8 8.0
2016-May-29 21:33N 54°25' E 011°50'8 8.1
2016-May-29 20:33N 54°27' E 011°37'8 8.0
2016-May-29 19:34N 54°31' E 011°25'8 7.9
2016-May-29 18:34N 54°35' E 011°12'8 7.8
2016-May-29 17:33N 54°35' E 010°59'27 8.7
2016-May-29 14:26N 54°26' E 010°14'6 6.3
2016-May-29 13:34N 54°22' E 010°09'3 3.2
2016-May-29 12:33N 54°22' E 010°03'30 5.8
2016-May-29 07:25N 54°06' E 009°20'7 8.3
2016-May-29 06:33N 53°59' E 009°17'7 7.0
2016-May-29 05:34N 53°54' E 009°09'1 1.1
2016-May-29 04:33N 53°53' E 009°07'2 2.3
2016-May-29 03:34N 53°52' E 009°04'9 8.8
2016-May-29 02:33N 53°50' E 008°49'8 8.6
2016-May-29 01:33N 53°56' E 008°39'8 8.1
2016-May-29 00:33N 53°59' E 008°26'8 7.7
2016-May-28 23:33N 54°00' E 008°13'2 1.6
2016-May-28 22:33N 53°59' E 008°10'6 6.1
2016-May-28 21:33N 54°01' E 008°00'5 5.1
2016-May-28 20:33N 54°03' E 007°52'5 5.4
2016-May-28 19:33N 54°06' E 007°44'5 5.1
2016-May-28 18:33N 54°09' E 007°37'6 5.8
2016-May-28 17:33N 54°14' E 007°34'6 6.0
2016-May-28 16:33N 54°20' E 007°33'5 4.8
2016-May-28 15:33N 54°25' E 007°33'5 5.3
2016-May-28 14:34N 54°30' E 007°33'7 7.3
2016-May-28 13:34N 54°37' E 007°32'8 7.4
2016-May-28 12:33N 54°45' E 007°31'7 7.5
2016-May-28 11:33N 54°52' E 007°32'7 7.2
2016-May-28 10:33N 54°59' E 007°38'7 7.5
2016-May-28 09:33N 55°05' E 007°45'8 7.8
2016-May-28 08:33N 55°11' E 007°54'7 7.4
2016-May-28 07:34N 55°17' E 008°01'8 7.7
2016-May-28 06:33N 55°23' E 008°10'8 8.1
2016-May-28 05:33N 55°28' E 008°20'3 2.4
2016-May-28 04:27N 55°29' E 008°25'0 0.0
2016-May-28 03:33N 55°29' E 008°25'0 0.0
2016-May-28 02:33N 55°29' E 008°25'0 0.0
2016-May-28 01:33N 55°29' E 008°25'0 0.0
2016-May-28 00:24N 55°29' E 008°25'0 0.0
2016-May-27 23:27N 55°29' E 008°25'0 0.0
2016-May-27 22:33N 55°29' E 008°25'0 0.0
2016-May-27 21:30N 55°29' E 008°25'0 0.0
2016-May-27 20:18N 55°29' E 008°25'0 0.0
2016-May-27 19:33N 55°29' E 008°25'0 0.2
2016-May-27 18:33N 55°29' E 008°25'0 0.0
2016-May-27 17:33N 55°29' E 008°25'0 0.0
2016-May-27 16:33N 55°29' E 008°25'2 1.7
2016-May-27 15:33N 55°29' E 008°22'4 4.0
2016-May-27 14:33N 55°26' E 008°16'3 2.9
2016-May-27 13:33N 55°24' E 008°12'1 1.4
2016-May-27 12:34N 55°24' E 008°10'1 0.8
2016-May-27 11:33N 55°24' E 008°09'5 4.8
2016-May-27 10:33N 55°24' E 008°00'5 5.2
2016-May-27 09:33N 55°24' E 007°51'5 4.7
2016-May-27 08:33N 55°25' E 007°43'5 4.7
2016-May-27 07:33N 55°27' E 007°35'5 5.0
2016-May-27 06:32N 55°29' E 007°27'5 5.0
2016-May-27 05:33N 55°31' E 007°19'6 5.5
2016-May-27 04:30N 55°32' E 007°09'  
2016-May-25 00:14N 55°33' E 007°09'5 6.8
2016-May-24 23:33N 55°31' E 007°17'7 6.6
2016-May-24 22:33N 55°29' E 007°28'6 6.5
2016-May-24 21:33N 55°27' E 007°39'7 6.9
2016-May-24 20:33N 55°25' E 007°51'8 7.5
2016-May-24 19:33N 55°25' E 008°04'8 7.5
2016-May-24 18:33N 55°27' E 008°17'5 5.2
2016-May-24 17:33N 55°28' E 008°26'0 0.0
2016-May-24 16:33N 55°28' E 008°26'0 0.0
2016-May-24 15:33N 55°28' E 008°26'0 0.0
2016-May-24 14:33N 55°28' E 008°26'0 0.0
2016-May-24 13:33N 55°28' E 008°26'0 0.0
2016-May-24 12:33N 55°28' E 008°26'0 0.0
2016-May-24 11:34N 55°28' E 008°26'0 0.0
2016-May-24 10:33N 55°28' E 008°26'0 0.0
2016-May-24 09:33N 55°28' E 008°26'0 0.0
2016-May-24 08:33N 55°28' E 008°26'0 0.0
2016-May-24 07:33N 55°28' E 008°26'0 0.0
2016-May-24 06:33N 55°28' E 008°26'0 0.0
2016-May-24 05:33N 55°28' E 008°26'0 0.0
2016-May-24 04:33N 55°28' E 008°26'0 0.0
2016-May-24 03:33N 55°28' E 008°26'0 0.0
2016-May-24 02:33N 55°28' E 008°26'0 0.0
2016-May-24 01:33N 55°28' E 008°26'0 0.0
2016-May-24 00:33N 55°28' E 008°26'0 0.0
2016-May-23 23:33N 55°28' E 008°26'0 0.0
2016-May-23 22:33N 55°28' E 008°26'0 0.0
2016-May-23 21:33N 55°28' E 008°26'0 0.0
2016-May-23 20:33N 55°28' E 008°26'0 0.0
2016-May-23 19:33N 55°28' E 008°26'0 0.0
2016-May-23 18:33N 55°28' E 008°26'0 0.0
2016-May-23 17:33N 55°28' E 008°26'0 0.0
2016-May-23 16:33N 55°28' E 008°26'0 0.0
2016-May-23 15:33N 55°28' E 008°26'0 0.0
2016-May-23 14:32N 55°28' E 008°26'0 0.0
2016-May-23 13:33N 55°28' E 008°26'0 0.0
2016-May-23 12:33N 55°28' E 008°26'0 0.0
2016-May-23 11:33N 55°28' E 008°26'0 0.0
2016-May-23 10:33N 55°28' E 008°26'0 0.0
2016-May-23 09:32N 55°28' E 008°26'2 1.8
2016-May-23 08:33N 55°29' E 008°23'8 7.6
2016-May-23 07:33N 55°25' E 008°12'8 8.1
2016-May-23 06:33N 55°19' E 008°03'8 8.2
2016-May-23 05:33N 55°13' E 007°52'8 8.2
2016-May-23 04:33N 55°08' E 007°41'7 7.4
2016-May-23 03:33N 55°03' E 007°31'7 7.0
2016-May-23 02:33N 54°59' E 007°21'7 7.0
2016-May-23 01:33N 54°55' E 007°11'66 7.9
2016-May-22 17:10N 54°19' E 005°35'6 8.8
2016-May-22 16:31N 54°16' E 005°27'8 8.5
2016-May-22 15:33N 54°11' E 005°16'8 8.3
2016-May-22 14:33N 54°04' E 005°08'9 8.5
2016-May-22 13:33N 53°56' E 005°03'11 8.6
2016-May-22 12:20N 53°46' E 004°57'139 9.4
2016-May-21 21:32N 51°41' E 003°20'8 8.1
2016-May-21 20:33N 51°33' E 003°25'8 7.6
2016-May-21 19:33N 51°27' E 003°32'5 5.4
2016-May-21 18:33N 51°28' E 003°40'0 0.0
2016-May-21 17:33N 51°28' E 003°40'0 0.0
2016-May-21 16:33N 51°28' E 003°40'0 0.0
2016-May-21 15:33N 51°28' E 003°40'0 0.0
2016-May-21 14:33N 51°28' E 003°40'0 0.0
2016-May-21 13:33N 51°28' E 003°40'0 0.0
2016-May-21 12:33N 51°28' E 003°40'0 0.0
2016-May-21 11:33N 51°28' E 003°40'0 0.0
2016-May-21 10:33N 51°28' E 003°40'0 0.0
2016-May-21 09:34N 51°28' E 003°40'0 0.0
2016-May-21 08:33N 51°28' E 003°40'0 0.0
2016-May-21 07:33N 51°28' E 003°40'0 0.0
2016-May-21 06:33N 51°28' E 003°40'0 0.0
2016-May-21 05:33N 51°28' E 003°40'0 0.0
2016-May-21 04:33N 51°28' E 003°40'0 0.0
2016-May-21 03:33N 51°28' E 003°40'0 0.0
2016-May-21 02:33N 51°28' E 003°40'0 0.0
2016-May-21 01:33N 51°28' E 003°40'0 0.0
2016-May-21 00:33N 51°28' E 003°40'0 0.0
2016-May-20 23:33N 51°28' E 003°40'0 0.0
2016-May-20 22:33N 51°28' E 003°40'0 0.0
2016-May-20 21:33N 51°28' E 003°40'0 0.0
2016-May-20 20:33N 51°28' E 003°40'0 0.0
2016-May-20 19:33N 51°28' E 003°40'2 1.5
2016-May-20 18:33N 51°29' E 003°42'2 1.5
2016-May-20 17:33N 51°28' E 003°40'0 0.0
2016-May-20 16:33N 51°28' E 003°40'0 0.0
2016-May-20 15:33N 51°28' E 003°40'0 0.0
2016-May-20 14:33N 51°28' E 003°40'0 0.0
2016-May-20 13:33N 51°28' E 003°40'0 0.0
2016-May-20 12:33N 51°28' E 003°40'0 0.0
2016-May-20 11:33N 51°28' E 003°40'0 0.0
2016-May-20 10:33N 51°28' E 003°40'0 0.5
2016-May-20 09:33N 51°27' E 003°40'1111.4
2016-May-20 08:33N 51°24' E 003°23'  
Track history (hours):
 
Tides and Currents Weather Stations Pressure Air Temp Water Temp Dewpoint Dewpoint Depression Visibility Wind Speed Wind Dir Waves Ship Positions

Maimiti

Last reported at 2016-May-30 07:32 UTC. Time now 2016-May-31 04:03 UTC.
Position N 54°31' E 013°42'.

Length 35 m; draft 6.6 m.

Type: Tug. MMSI: 244850959.

Date/timePositionNaut miles runAvg speedWind from/ knotsBaromVisibWave heightAir tempDewpointWater temp
2016-May-30 07:32N 54°31' E 013°42'7 6.7
2016-May-30 06:31N 54°37' E 013°39'30 7.6
2016-May-30 02:33N 54°41' E 012°47'9 8.2
2016-May-30 01:31N 54°39' E 012°33'23 7.7
2016-May-29 22:33N 54°24' E 012°03'8 8.0
2016-May-29 21:33N 54°25' E 011°50'8 8.1
2016-May-29 20:33N 54°27' E 011°37'8 8.0
2016-May-29 19:34N 54°31' E 011°25'8 7.9
2016-May-29 18:34N 54°35' E 011°12'8 7.8
2016-May-29 17:33N 54°35' E 010°59'27 8.7
2016-May-29 14:26N 54°26' E 010°14'6 6.3
2016-May-29 13:34N 54°22' E 010°09'3 3.2
2016-May-29 12:33N 54°22' E 010°03'30 5.8
2016-May-29 07:25N 54°06' E 009°20'7 8.3
2016-May-29 06:33N 53°59' E 009°17'7 7.0
2016-May-29 05:34N 53°54' E 009°09'1 1.1
2016-May-29 04:33N 53°53' E 009°07'2 2.3
2016-May-29 03:34N 53°52' E 009°04'9 8.8
2016-May-29 02:33N 53°50' E 008°49'8 8.6
2016-May-29 01:33N 53°56' E 008°39'8 8.1
2016-May-29 00:33N 53°59' E 008°26'8 7.7
2016-May-28 23:33N 54°00' E 008°13'2 1.6
2016-May-28 22:33N 53°59' E 008°10'6 6.1
2016-May-28 21:33N 54°01' E 008°00'5 5.1
2016-May-28 20:33N 54°03' E 007°52'5 5.4
2016-May-28 19:33N 54°06' E 007°44'5 5.1
2016-May-28 18:33N 54°09' E 007°37'6 5.8
2016-May-28 17:33N 54°14' E 007°34'6 6.0
2016-May-28 16:33N 54°20' E 007°33'5 4.8
2016-May-28 15:33N 54°25' E 007°33'5 5.3
2016-May-28 14:34N 54°30' E 007°33'7 7.3
2016-May-28 13:34N 54°37' E 007°32'8 7.4
2016-May-28 12:33N 54°45' E 007°31'7 7.5
2016-May-28 11:33N 54°52' E 007°32'7 7.2
2016-May-28 10:33N 54°59' E 007°38'7 7.5
2016-May-28 09:33N 55°05' E 007°45'8 7.8
2016-May-28 08:33N 55°11' E 007°54'7 7.4
2016-May-28 07:34N 55°17' E 008°01'8 7.7
2016-May-28 06:33N 55°23' E 008°10'8 8.1
2016-May-28 05:33N 55°28' E 008°20'3 2.4
2016-May-28 04:27N 55°29' E 008°25'0 0.0
2016-May-28 03:33N 55°29' E 008°25'0 0.0
2016-May-28 02:33N 55°29' E 008°25'0 0.0
2016-May-28 01:33N 55°29' E 008°25'0 0.0
2016-May-28 00:24N 55°29' E 008°25'0 0.0
2016-May-27 23:27N 55°29' E 008°25'0 0.0
2016-May-27 22:33N 55°29' E 008°25'0 0.0
2016-May-27 21:30N 55°29' E 008°25'0 0.0
2016-May-27 20:18N 55°29' E 008°25'0 0.0
2016-May-27 19:33N 55°29' E 008°25'0 0.2
2016-May-27 18:33N 55°29' E 008°25'0 0.0
2016-May-27 17:33N 55°29' E 008°25'0 0.0
2016-May-27 16:33N 55°29' E 008°25'2 1.7
2016-May-27 15:33N 55°29' E 008°22'4 4.0
2016-May-27 14:33N 55°26' E 008°16'3 2.9
2016-May-27 13:33N 55°24' E 008°12'1 1.4
2016-May-27 12:34N 55°24' E 008°10'1 0.8
2016-May-27 11:33N 55°24' E 008°09'5 4.8
2016-May-27 10:33N 55°24' E 008°00'5 5.2
2016-May-27 09:33N 55°24' E 007°51'5 4.7
2016-May-27 08:33N 55°25' E 007°43'5 4.7
2016-May-27 07:33N 55°27' E 007°35'5 5.0
2016-May-27 06:32N 55°29' E 007°27'5 5.0
2016-May-27 05:33N 55°31' E 007°19'6 5.5
2016-May-27 04:30N 55°32' E 007°09'  
2016-May-25 00:14N 55°33' E 007°09'5 6.8
2016-May-24 23:33N 55°31' E 007°17'7 6.6
2016-May-24 22:33N 55°29' E 007°28'6 6.5
2016-May-24 21:33N 55°27' E 007°39'7 6.9
2016-May-24 20:33N 55°25' E 007°51'8 7.5
2016-May-24 19:33N 55°25' E 008°04'8 7.5
2016-May-24 18:33N 55°27' E 008°17'5 5.2
2016-May-24 17:33N 55°28' E 008°26'0 0.0
2016-May-24 16:33N 55°28' E 008°26'0 0.0
2016-May-24 15:33N 55°28' E 008°26'0 0.0
2016-May-24 14:33N 55°28' E 008°26'0 0.0
2016-May-24 13:33N 55°28' E 008°26'0 0.0
2016-May-24 12:33N 55°28' E 008°26'0 0.0
2016-May-24 11:34N 55°28' E 008°26'0 0.0
2016-May-24 10:33N 55°28' E 008°26'0 0.0
2016-May-24 09:33N 55°28' E 008°26'0 0.0
2016-May-24 08:33N 55°28' E 008°26'0 0.0
2016-May-24 07:33N 55°28' E 008°26'0 0.0
2016-May-24 06:33N 55°28' E 008°26'0 0.0
2016-May-24 05:33N 55°28' E 008°26'0 0.0
2016-May-24 04:33N 55°28' E 008°26'0 0.0
2016-May-24 03:33N 55°28' E 008°26'0 0.0
2016-May-24 02:33N 55°28' E 008°26'0 0.0
2016-May-24 01:33N 55°28' E 008°26'0 0.0
2016-May-24 00:33N 55°28' E 008°26'0 0.0
2016-May-23 23:33N 55°28' E 008°26'0 0.0
2016-May-23 22:33N 55°28' E 008°26'0 0.0
2016-May-23 21:33N 55°28' E 008°26'0 0.0
2016-May-23 20:33N 55°28' E 008°26'0 0.0
2016-May-23 19:33N 55°28' E 008°26'0 0.0
2016-May-23 18:33N 55°28' E 008°26'0 0.0
2016-May-23 17:33N 55°28' E 008°26'0 0.0
2016-May-23 16:33N 55°28' E 008°26'0 0.0
2016-May-23 15:33N 55°28' E 008°26'0 0.0
2016-May-23 14:32N 55°28' E 008°26'0 0.0
2016-May-23 13:33N 55°28' E 008°26'0 0.0
2016-May-23 12:33N 55°28' E 008°26'0 0.0
2016-May-23 11:33N 55°28' E 008°26'0 0.0
2016-May-23 10:33N 55°28' E 008°26'0 0.0
2016-May-23 09:32N 55°28' E 008°26'2 1.8
2016-May-23 08:33N 55°29' E 008°23'8 7.6
2016-May-23 07:33N 55°25' E 008°12'8 8.1
2016-May-23 06:33N 55°19' E 008°03'8 8.2
2016-May-23 05:33N 55°13' E 007°52'8 8.2
2016-May-23 04:33N 55°08' E 007°41'7 7.4
2016-May-23 03:33N 55°03' E 007°31'7 7.0
2016-May-23 02:33N 54°59' E 007°21'7 7.0
2016-May-23 01:33N 54°55' E 007°11'66 7.9
2016-May-22 17:10N 54°19' E 005°35'6 8.8
2016-May-22 16:31N 54°16' E 005°27'8 8.5
2016-May-22 15:33N 54°11' E 005°16'8 8.3
2016-May-22 14:33N 54°04' E 005°08'9 8.5
2016-May-22 13:33N 53°56' E 005°03'11 8.6
2016-May-22 12:20N 53°46' E 004°57'139 9.4
2016-May-21 21:32N 51°41' E 003°20'8 8.1
2016-May-21 20:33N 51°33' E 003°25'8 7.6
2016-May-21 19:33N 51°27' E 003°32'5 5.4
2016-May-21 18:33N 51°28' E 003°40'0 0.0
2016-May-21 17:33N 51°28' E 003°40'0 0.0
2016-May-21 16:33N 51°28' E 003°40'0 0.0
2016-May-21 15:33N 51°28' E 003°40'0 0.0
2016-May-21 14:33N 51°28' E 003°40'0 0.0
2016-May-21 13:33N 51°28' E 003°40'0 0.0
2016-May-21 12:33N 51°28' E 003°40'0 0.0
2016-May-21 11:33N 51°28' E 003°40'0 0.0
2016-May-21 10:33N 51°28' E 003°40'0 0.0
2016-May-21 09:34N 51°28' E 003°40'0 0.0
2016-May-21 08:33N 51°28' E 003°40'0 0.0
2016-May-21 07:33N 51°28' E 003°40'0 0.0
2016-May-21 06:33N 51°28' E 003°40'0 0.0
2016-May-21 05:33N 51°28' E 003°40'0 0.0
2016-May-21 04:33N 51°28' E 003°40'0 0.0
2016-May-21 03:33N 51°28' E 003°40'0 0.0
2016-May-21 02:33N 51°28' E 003°40'0 0.0
2016-May-21 01:33N 51°28' E 003°40'0 0.0
2016-May-21 00:33N 51°28' E 003°40'0 0.0
2016-May-20 23:33N 51°28' E 003°40'0 0.0
2016-May-20 22:33N 51°28' E 003°40'0 0.0
2016-May-20 21:33N 51°28' E 003°40'0 0.0
2016-May-20 20:33N 51°28' E 003°40'0 0.0
2016-May-20 19:33N 51°28' E 003°40'2 1.5
2016-May-20 18:33N 51°29' E 003°42'2 1.5
2016-May-20 17:33N 51°28' E 003°40'0 0.0
2016-May-20 16:33N 51°28' E 003°40'0 0.0
2016-May-20 15:33N 51°28' E 003°40'0 0.0
2016-May-20 14:33N 51°28' E 003°40'0 0.0
2016-May-20 13:33N 51°28' E 003°40'0 0.0
2016-May-20 12:33N 51°28' E 003°40'0 0.0
2016-May-20 11:33N 51°28' E 003°40'0 0.0
2016-May-20 10:33N 51°28' E 003°40'0 0.5
2016-May-20 09:33N 51°27' E 003°40'1111.4
2016-May-20 08:33N 51°24' E 003°23'  

Dump ship's entire track history